sensor_id;sensor_type;location;lat;lon;timestamp;pressure;altitude;pressure_sealevel;temperature;humidity
57628;BME280;43451;49.060;10.616;2023-07-08T00:00:20;96936.44;;;14.16;98.70
57628;BME280;43451;49.060;10.616;2023-07-08T00:02:45;96942.56;;;14.27;98.09
57628;BME280;43451;49.060;10.616;2023-07-08T00:05:13;96928.91;;;14.24;97.68
57628;BME280;43451;49.060;10.616;2023-07-08T00:07:40;96933.63;;;14.23;98.04
57628;BME280;43451;49.060;10.616;2023-07-08T00:10:24;96932.19;;;14.15;98.13
57628;BME280;43451;49.060;10.616;2023-07-08T00:12:52;96941.00;;;13.96;100.00
57628;BME280;43451;49.060;10.616;2023-07-08T00:15:20;96943.97;;;14.08;99.92
57628;BME280;43451;49.060;10.616;2023-07-08T00:17:46;96941.19;;;14.12;100.00
57628;BME280;43451;49.060;10.616;2023-07-08T00:20:39;96932.53;;;14.17;100.00
57628;BME280;43451;49.060;10.616;2023-07-08T00:23:05;96936.72;;;14.25;97.02
57628;BME280;43451;49.060;10.616;2023-07-08T00:25:31;96935.19;;;14.24;98.62
57628;BME280;43451;49.060;10.616;2023-07-08T00:27:58;96928.09;;;14.30;94.81
57628;BME280;43451;49.060;10.616;2023-07-08T00:30:26;96931.59;;;14.31;94.38
57628;BME280;43451;49.060;10.616;2023-07-08T00:32:53;96938.59;;;14.32;95.32
57628;BME280;43451;49.060;10.616;2023-07-08T00:35:24;96932.75;;;14.30;94.69
57628;BME280;43451;49.060;10.616;2023-07-08T00:37:52;96927.28;;;14.30;96.36
57628;BME280;43451;49.060;10.616;2023-07-08T00:40:20;96926.41;;;14.36;96.28
57628;BME280;43451;49.060;10.616;2023-07-08T00:42:46;96916.78;;;14.28;95.77
57628;BME280;43451;49.060;10.616;2023-07-08T00:48:23;96919.22;;;14.19;97.00
57628;BME280;43451;49.060;10.616;2023-07-08T00:50:49;96920.50;;;14.11;98.46
57628;BME280;43451;49.060;10.616;2023-07-08T00:53:26;96912.78;;;14.06;97.87
57628;BME280;43451;49.060;10.616;2023-07-08T00:55:55;96919.88;;;14.00;97.58
57628;BME280;43451;49.060;10.616;2023-07-08T00:58:25;96920.31;;;13.94;97.81
57628;BME280;43451;49.060;10.616;2023-07-08T01:00:53;96909.38;;;13.94;98.27
57628;BME280;43451;49.060;10.616;2023-07-08T01:03:23;96906.59;;;13.98;98.80
57628;BME280;43451;49.060;10.616;2023-07-08T01:05:49;96912.50;;;13.97;99.84
57628;BME280;43451;49.060;10.616;2023-07-08T01:08:17;96920.78;;;13.89;97.76
57628;BME280;43451;49.060;10.616;2023-07-08T01:10:52;96914.59;;;13.82;98.41
57628;BME280;43451;49.060;10.616;2023-07-08T01:13:21;96911.81;;;13.85;98.93
57628;BME280;43451;49.060;10.616;2023-07-08T01:15:47;96913.41;;;13.86;99.06
57628;BME280;43451;49.060;10.616;2023-07-08T01:18:16;96908.38;;;13.81;100.00
57628;BME280;43451;49.060;10.616;2023-07-08T01:20:43;96902.53;;;13.79;100.00
57628;BME280;43451;49.060;10.616;2023-07-08T01:23:12;96899.47;;;13.77;100.00
57628;BME280;43451;49.060;10.616;2023-07-08T01:25:37;96904.44;;;13.82;99.55
57628;BME280;43451;49.060;10.616;2023-07-08T01:28:03;96902.53;;;13.79;98.32
57628;BME280;43451;49.060;10.616;2023-07-08T01:30:30;96906.91;;;13.73;99.71
57628;BME280;43451;49.060;10.616;2023-07-08T01:33:01;96908.81;;;13.76;99.13
57628;BME280;43451;49.060;10.616;2023-07-08T01:35:28;96911.09;;;13.81;100.00
57628;BME280;43451;49.060;10.616;2023-07-08T01:37:58;96915.38;;;13.82;100.00
57628;BME280;43451;49.060;10.616;2023-07-08T01:40:28;96918.84;;;13.86;98.98
57628;BME280;43451;49.060;10.616;2023-07-08T01:42:53;96926.44;;;13.72;99.67
57628;BME280;43451;49.060;10.616;2023-07-08T01:45:22;96928.81;;;13.66;99.29
57628;BME280;43451;49.060;10.616;2023-07-08T01:47:52;96920.03;;;13.47;100.00
57628;BME280;43451;49.060;10.616;2023-07-08T01:50:20;96921.66;;;13.41;100.00
57628;BME280;43451;49.060;10.616;2023-07-08T01:52:47;96918.13;;;13.44;100.00
57628;BME280;43451;49.060;10.616;2023-07-08T01:55:13;96908.81;;;13.42;100.00
57628;BME280;43451;49.060;10.616;2023-07-08T01:57:39;96920.84;;;13.44;100.00
57628;BME280;43451;49.060;10.616;2023-07-08T02:00:05;96922.53;;;13.31;100.00
57628;BME280;43451;49.060;10.616;2023-07-08T02:02:30;96910.56;;;13.18;100.00
57628;BME280;43451;49.060;10.616;2023-07-08T02:04:56;96905.81;;;13.22;100.00
57628;BME280;43451;49.060;10.616;2023-07-08T02:07:21;96901.94;;;13.27;99.54
57628;BME280;43451;49.060;10.616;2023-07-08T02:09:47;96898.03;;;13.28;99.65
57628;BME280;43451;49.060;10.616;2023-07-08T02:12:12;96907.28;;;13.37;99.14
57628;BME280;43451;49.060;10.616;2023-07-08T02:14:37;96909.19;;;13.40;99.05
57628;BME280;43451;49.060;10.616;2023-07-08T02:17:03;96918.28;;;13.30;99.51
57628;BME280;43451;49.060;10.616;2023-07-08T02:19:31;96905.75;;;13.36;99.29
57628;BME280;43451;49.060;10.616;2023-07-08T02:21:56;96912.00;;;13.33;100.00
57628;BME280;43451;49.060;10.616;2023-07-08T02:24:23;96901.09;;;13.33;100.00
57628;BME280;43451;49.060;10.616;2023-07-08T02:26:49;96904.22;;;13.32;99.58
57628;BME280;43451;49.060;10.616;2023-07-08T02:29:15;96902.34;;;13.21;100.00
57628;BME280;43451;49.060;10.616;2023-07-08T02:31:40;96904.00;;;13.08;100.00
57628;BME280;43451;49.060;10.616;2023-07-08T02:34:05;96898.53;;;13.12;100.00
57628;BME280;43451;49.060;10.616;2023-07-08T02:36:33;96893.53;;;13.07;100.00
57628;BME280;43451;49.060;10.616;2023-07-08T02:38:59;96895.84;;;13.08;100.00
57628;BME280;43451;49.060;10.616;2023-07-08T02:41:25;96898.91;;;13.14;100.00
57628;BME280;43451;49.060;10.616;2023-07-08T02:43:50;96904.44;;;13.07;100.00
57628;BME280;43451;49.060;10.616;2023-07-08T02:46:16;96896.63;;;13.05;100.00
57628;BME280;43451;49.060;10.616;2023-07-08T02:48:41;96900.59;;;12.97;100.00
57628;BME280;43451;49.060;10.616;2023-07-08T02:51:06;96908.06;;;12.89;100.00
57628;BME280;43451;49.060;10.616;2023-07-08T02:53:34;96901.06;;;12.88;100.00
57628;BME280;43451;49.060;10.616;2023-07-08T02:55:59;96910.72;;;12.96;100.00
57628;BME280;43451;49.060;10.616;2023-07-08T02:58:25;96910.81;;;12.86;100.00
57628;BME280;43451;49.060;10.616;2023-07-08T03:00:54;96902.28;;;12.80;100.00
57628;BME280;43451;49.060;10.616;2023-07-08T03:03:21;96905.47;;;12.71;100.00
57628;BME280;43451;49.060;10.616;2023-07-08T03:05:58;96907.84;;;12.62;100.00
57628;BME280;43451;49.060;10.616;2023-07-08T03:08:25;96918.75;;;12.62;100.00
57628;BME280;43451;49.060;10.616;2023-07-08T03:10:56;96921.50;;;12.62;100.00
57628;BME280;43451;49.060;10.616;2023-07-08T03:13:22;96930.19;;;12.46;100.00
57628;BME280;43451;49.060;10.616;2023-07-08T03:15:48;96926.63;;;12.49;100.00
57628;BME280;43451;49.060;10.616;2023-07-08T03:18:13;96921.22;;;12.42;100.00
57628;BME280;43451;49.060;10.616;2023-07-08T03:20:42;96921.22;;;12.42;100.00
57628;BME280;43451;49.060;10.616;2023-07-08T03:23:10;96924.41;;;12.30;100.00
57628;BME280;43451;49.060;10.616;2023-07-08T03:25:36;96939.22;;;12.29;100.00
57628;BME280;43451;49.060;10.616;2023-07-08T03:28:03;96934.50;;;12.33;100.00
57628;BME280;43451;49.060;10.616;2023-07-08T03:30:32;96932.56;;;12.34;100.00
57628;BME280;43451;49.060;10.616;2023-07-08T03:32:58;96939.19;;;12.32;100.00
57628;BME280;43451;49.060;10.616;2023-07-08T03:35:23;96934.53;;;12.29;100.00
57628;BME280;43451;49.060;10.616;2023-07-08T03:37:50;96936.91;;;12.27;100.00
57628;BME280;43451;49.060;10.616;2023-07-08T03:40:16;96943.13;;;12.28;100.00
57628;BME280;43451;49.060;10.616;2023-07-08T03:42:41;96943.06;;;12.35;100.00
57628;BME280;43451;49.060;10.616;2023-07-08T03:45:07;96943.88;;;12.28;100.00
57628;BME280;43451;49.060;10.616;2023-07-08T03:47:33;96948.19;;;12.26;100.00
57628;BME280;43451;49.060;10.616;2023-07-08T03:49:59;96951.72;;;12.19;100.00
57628;BME280;43451;49.060;10.616;2023-07-08T03:52:24;96950.94;;;12.19;100.00
57628;BME280;43451;49.060;10.616;2023-07-08T03:54:50;96943.88;;;12.32;100.00
57628;BME280;43451;49.060;10.616;2023-07-08T03:57:15;96958.25;;;12.36;100.00
57628;BME280;43451;49.060;10.616;2023-07-08T03:59:41;96953.19;;;12.38;100.00
57628;BME280;43451;49.060;10.616;2023-07-08T04:02:10;96955.16;;;12.27;100.00
57628;BME280;43451;49.060;10.616;2023-07-08T04:04:36;96948.94;;;12.30;100.00
57628;BME280;43451;49.060;10.616;2023-07-08T04:07:03;96946.28;;;12.16;100.00
57628;BME280;43451;49.060;10.616;2023-07-08T04:09:29;96956.34;;;12.29;100.00
57628;BME280;43451;49.060;10.616;2023-07-08T04:11:55;96961.00;;;12.32;100.00
57628;BME280;43451;49.060;10.616;2023-07-08T04:14:20;96955.88;;;12.45;100.00
57628;BME280;43451;49.060;10.616;2023-07-08T04:16:57;96956.94;;;12.59;100.00
57628;BME280;43451;49.060;10.616;2023-07-08T04:19:24;96956.94;;;12.62;100.00
57628;BME280;43451;49.060;10.616;2023-07-08T04:21:50;96944.78;;;12.74;100.00
57628;BME280;43451;49.060;10.616;2023-07-08T04:24:17;96956.41;;;12.85;100.00
57628;BME280;43451;49.060;10.616;2023-07-08T04:26:44;96955.97;;;12.90;100.00
57628;BME280;43451;49.060;10.616;2023-07-08T04:29:17;96959.03;;;12.99;100.00
57628;BME280;43451;49.060;10.616;2023-07-08T04:31:43;96965.97;;;13.08;100.00
57628;BME280;43451;49.060;10.616;2023-07-08T04:34:09;96973.72;;;13.13;100.00
57628;BME280;43451;49.060;10.616;2023-07-08T04:36:36;96961.97;;;13.23;100.00
57628;BME280;43451;49.060;10.616;2023-07-08T04:39:03;96965.03;;;13.29;100.00
57628;BME280;43451;49.060;10.616;2023-07-08T04:41:30;96965.00;;;13.36;100.00
57628;BME280;43451;49.060;10.616;2023-07-08T04:43:55;96970.44;;;13.39;100.00
57628;BME280;43451;49.060;10.616;2023-07-08T04:46:45;96976.59;;;13.47;100.00
57628;BME280;43451;49.060;10.616;2023-07-08T04:49:11;96971.84;;;13.55;100.00
57628;BME280;43451;49.060;10.616;2023-07-08T04:51:39;96976.50;;;13.58;100.00
57628;BME280;43451;49.060;10.616;2023-07-08T04:54:05;96982.63;;;13.69;100.00
57628;BME280;43451;49.060;10.616;2023-07-08T04:56:45;96977.06;;;13.80;100.00
57628;BME280;43451;49.060;10.616;2023-07-08T04:59:15;96983.19;;;13.91;100.00
57628;BME280;43451;49.060;10.616;2023-07-08T05:01:41;96978.69;;;14.08;100.00
57628;BME280;43451;49.060;10.616;2023-07-08T05:04:10;96990.66;;;14.21;100.00
57628;BME280;43451;49.060;10.616;2023-07-08T05:06:36;96986.91;;;14.38;100.00
57628;BME280;43451;49.060;10.616;2023-07-08T05:09:02;96986.78;;;14.53;100.00
57628;BME280;43451;49.060;10.616;2023-07-08T05:11:28;96980.28;;;14.70;100.00
57628;BME280;43451;49.060;10.616;2023-07-08T05:13:54;96987.94;;;14.82;99.29
57628;BME280;43451;49.060;10.616;2023-07-08T05:16:20;96993.50;;;15.02;97.57
57628;BME280;43451;49.060;10.616;2023-07-08T05:18:46;96977.22;;;15.19;95.78
57628;BME280;43451;49.060;10.616;2023-07-08T05:21:12;96984.50;;;15.29;93.72
57628;BME280;43451;49.060;10.616;2023-07-08T05:23:38;96975.97;;;15.47;94.65
57628;BME280;43451;49.060;10.616;2023-07-08T05:26:04;96984.66;;;15.65;90.95
57628;BME280;43451;49.060;10.616;2023-07-08T05:28:31;96978.97;;;15.80;92.58
57628;BME280;43451;49.060;10.616;2023-07-08T05:30:57;96984.88;;;15.98;93.95
57628;BME280;43451;49.060;10.616;2023-07-08T05:33:24;96972.88;;;16.12;94.83
57628;BME280;43451;49.060;10.616;2023-07-08T05:35:50;96975.88;;;16.37;92.49
57628;BME280;43451;49.060;10.616;2023-07-08T05:38:17;96977.91;;;16.53;94.27
57628;BME280;43451;49.060;10.616;2023-07-08T05:40:43;96973.00;;;16.81;91.85
57628;BME280;43451;49.060;10.616;2023-07-08T05:43:13;96972.19;;;17.33;89.68
57628;BME280;43451;49.060;10.616;2023-07-08T05:45:38;96967.03;;;17.97;86.46
57628;BME280;43451;49.060;10.616;2023-07-08T05:48:04;96954.69;;;18.72;77.78
57628;BME280;43451;49.060;10.616;2023-07-08T05:50:30;96949.06;;;19.62;71.38
57628;BME280;43451;49.060;10.616;2023-07-08T05:52:55;96944.31;;;20.41;66.61
57628;BME280;43451;49.060;10.616;2023-07-08T05:55:21;96946.56;;;20.96;63.49
57628;BME280;43451;49.060;10.616;2023-07-08T05:57:47;96950.16;;;21.15;63.53
57628;BME280;43451;49.060;10.616;2023-07-08T06:00:13;96950.91;;;21.55;63.29
57628;BME280;43451;49.060;10.616;2023-07-08T06:02:38;96948.63;;;21.91;62.45
57628;BME280;43451;49.060;10.616;2023-07-08T06:05:04;96946.47;;;22.22;56.15
57628;BME280;43451;49.060;10.616;2023-07-08T06:07:30;96946.81;;;22.67;53.79
57628;BME280;43451;49.060;10.616;2023-07-08T06:09:57;96949.56;;;22.76;54.62
57628;BME280;43451;49.060;10.616;2023-07-08T06:12:22;96956.69;;;23.10;52.13
57628;BME280;43451;49.060;10.616;2023-07-08T06:14:49;96949.63;;;23.33;50.50
57628;BME280;43451;49.060;10.616;2023-07-08T06:17:16;96954.31;;;23.51;49.39
57628;BME280;43451;49.060;10.616;2023-07-08T06:19:42;96946.69;;;23.37;50.57
57628;BME280;43451;49.060;10.616;2023-07-08T06:22:08;96945.91;;;23.60;48.14
57628;BME280;43451;49.060;10.616;2023-07-08T06:24:34;96943.69;;;23.74;48.43
57628;BME280;43451;49.060;10.616;2023-07-08T06:26:59;96937.84;;;23.72;47.53
57628;BME280;43451;49.060;10.616;2023-07-08T06:29:25;96935.38;;;23.74;49.28
57628;BME280;43451;49.060;10.616;2023-07-08T06:31:50;96932.91;;;23.91;50.37
57628;BME280;43451;49.060;10.616;2023-07-08T06:34:18;96930.75;;;23.95;48.32
57628;BME280;43451;49.060;10.616;2023-07-08T06:36:43;96933.78;;;23.82;48.25
57628;BME280;43451;49.060;10.616;2023-07-08T06:39:09;96927.16;;;23.79;47.19
57628;BME280;43451;49.060;10.616;2023-07-08T06:41:36;96924.47;;;23.70;47.58
57628;BME280;43451;49.060;10.616;2023-07-08T06:44:02;96921.31;;;23.53;48.35
57628;BME280;43451;49.060;10.616;2023-07-08T06:46:28;96930.41;;;23.30;50.94
57628;BME280;43451;49.060;10.616;2023-07-08T06:48:53;96936.56;;;23.25;50.84
57628;BME280;43451;49.060;10.616;2023-07-08T06:51:19;96941.84;;;23.23;50.19
57628;BME280;43451;49.060;10.616;2023-07-08T06:53:44;96943.72;;;23.16;50.55
57628;BME280;43451;49.060;10.616;2023-07-08T06:56:10;96943.38;;;23.24;51.80
57628;BME280;43451;49.060;10.616;2023-07-08T06:58:36;96942.69;;;23.38;49.45
57628;BME280;43451;49.060;10.616;2023-07-08T07:01:01;96942.06;;;23.34;48.35
57628;BME280;43451;49.060;10.616;2023-07-08T07:03:27;96942.31;;;23.21;49.33
57628;BME280;43451;49.060;10.616;2023-07-08T07:05:53;96945.97;;;23.27;49.47
57628;BME280;43451;49.060;10.616;2023-07-08T07:08:18;96945.31;;;23.32;48.72
57628;BME280;43451;49.060;10.616;2023-07-08T07:10:43;96944.09;;;23.57;50.25
57628;BME280;43451;49.060;10.616;2023-07-08T07:13:09;96943.34;;;23.57;48.41
57628;BME280;43451;49.060;10.616;2023-07-08T07:15:34;96942.31;;;23.45;50.12
57628;BME280;43451;49.060;10.616;2023-07-08T07:18:00;96948.22;;;23.38;49.82
57628;BME280;43451;49.060;10.616;2023-07-08T07:20:26;96955.44;;;23.45;50.68
57628;BME280;43451;49.060;10.616;2023-07-08T07:22:52;96951.88;;;23.44;48.92
57628;BME280;43451;49.060;10.616;2023-07-08T07:25:18;96955.88;;;23.43;48.55
57628;BME280;43451;49.060;10.616;2023-07-08T07:27:43;96949.69;;;23.48;49.05
57628;BME280;43451;49.060;10.616;2023-07-08T07:30:09;96946.69;;;23.61;48.36
57628;BME280;43451;49.060;10.616;2023-07-08T07:32:41;96955.59;;;23.65;48.66
57628;BME280;43451;49.060;10.616;2023-07-08T07:35:08;96946.69;;;23.85;49.10
57628;BME280;43451;49.060;10.616;2023-07-08T07:37:34;96946.91;;;23.96;48.72
57628;BME280;43451;49.060;10.616;2023-07-08T07:39:59;96943.66;;;24.13;47.00
57628;BME280;43451;49.060;10.616;2023-07-08T07:42:27;96934.69;;;24.18;47.13
57628;BME280;43451;49.060;10.616;2023-07-08T07:44:53;96943.09;;;24.08;48.37
57628;BME280;43451;49.060;10.616;2023-07-08T07:47:18;96946.38;;;24.22;48.77
57628;BME280;43451;49.060;10.616;2023-07-08T07:49:44;96940.53;;;24.35;47.20
57628;BME280;43451;49.060;10.616;2023-07-08T07:52:10;96942.19;;;24.41;47.43
57628;BME280;43451;49.060;10.616;2023-07-08T07:54:37;96943.63;;;24.51;48.83
57628;BME280;43451;49.060;10.616;2023-07-08T07:57:04;96941.91;;;24.69;48.09
57628;BME280;43451;49.060;10.616;2023-07-08T07:59:29;96939.88;;;24.84;46.95
57628;BME280;43451;49.060;10.616;2023-07-08T08:01:55;96945.78;;;24.92;47.12
57628;BME280;43451;49.060;10.616;2023-07-08T08:04:20;96955.75;;;24.98;46.62
57628;BME280;43451;49.060;10.616;2023-07-08T08:06:46;96957.66;;;25.22;46.36
57628;BME280;43451;49.060;10.616;2023-07-08T08:09:12;96967.09;;;25.30;46.57
57628;BME280;43451;49.060;10.616;2023-07-08T08:11:38;96976.81;;;25.76;44.01
57628;BME280;43451;49.060;10.616;2023-07-08T08:14:03;96990.16;;;25.71;45.15
57628;BME280;43451;49.060;10.616;2023-07-08T08:16:30;96985.38;;;25.72;45.35
57628;BME280;43451;49.060;10.616;2023-07-08T08:18:56;96993.25;;;25.94;44.06
57628;BME280;43451;49.060;10.616;2023-07-08T08:21:21;96986.03;;;26.28;41.28
57628;BME280;43451;49.060;10.616;2023-07-08T08:23:47;96983.81;;;26.32;40.31
57628;BME280;43451;49.060;10.616;2023-07-08T08:26:13;96994.19;;;26.32;41.54
57628;BME280;43451;49.060;10.616;2023-07-08T08:28:39;96992.44;;;26.34;41.88
57628;BME280;43451;49.060;10.616;2023-07-08T08:31:05;96995.13;;;26.23;43.64
57628;BME280;43451;49.060;10.616;2023-07-08T08:33:30;96992.44;;;26.34;43.16
57628;BME280;43451;49.060;10.616;2023-07-08T08:35:56;96994.41;;;26.28;45.11
57628;BME280;43451;49.060;10.616;2023-07-08T08:38:21;96996.75;;;26.35;43.33
57628;BME280;43451;49.060;10.616;2023-07-08T08:40:47;96996.38;;;26.22;46.16
57628;BME280;43451;49.060;10.616;2023-07-08T08:43:19;97002.91;;;26.19;44.90
57628;BME280;43451;49.060;10.616;2023-07-08T08:46:09;97000.13;;;26.19;45.09
57628;BME280;43451;49.060;10.616;2023-07-08T08:49:30;97000.25;;;26.30;44.56
57628;BME280;43451;49.060;10.616;2023-07-08T08:51:31;96998.16;;;26.46;43.51
57628;BME280;43451;49.060;10.616;2023-07-08T08:53:57;97000.22;;;26.51;42.36
57628;BME280;43451;49.060;10.616;2023-07-08T08:56:48;97006.66;;;26.36;43.28
57628;BME280;43451;49.060;10.616;2023-07-08T09:01:50;97012.34;;;26.48;42.61
57628;BME280;43451;49.060;10.616;2023-07-08T09:04:20;97015.00;;;26.57;42.13
57628;BME280;43451;49.060;10.616;2023-07-08T09:06:47;97010.91;;;26.52;41.93
57628;BME280;43451;49.060;10.616;2023-07-08T09:09:18;97023.91;;;26.40;42.39
57628;BME280;43451;49.060;10.616;2023-07-08T09:14:25;97020.31;;;26.34;43.21
57628;BME280;43451;49.060;10.616;2023-07-08T09:25:03;97010.53;;;26.65;44.70
57628;BME280;43451;49.060;10.616;2023-07-08T09:27:30;97014.44;;;26.53;44.39
57628;BME280;43451;49.060;10.616;2023-07-08T09:29:56;97013.75;;;26.37;44.21
57628;BME280;43451;49.060;10.616;2023-07-08T09:32:24;97021.31;;;26.11;45.69
57628;BME280;43451;49.060;10.616;2023-07-08T09:35:04;97016.44;;;26.06;45.86
57628;BME280;43451;49.060;10.616;2023-07-08T09:37:35;97011.28;;;25.99;47.14
57628;BME280;43451;49.060;10.616;2023-07-08T09:40:21;97020.50;;;26.05;47.49
57628;BME280;43451;49.060;10.616;2023-07-08T09:42:51;97013.53;;;25.95;45.97
57628;BME280;43451;49.060;10.616;2023-07-08T09:45:23;97016.16;;;25.83;47.38
57628;BME280;43451;49.060;10.616;2023-07-08T09:47:52;97021.38;;;25.76;49.06
57628;BME280;43451;49.060;10.616;2023-07-08T09:50:21;97011.97;;;25.93;47.19
57628;BME280;43451;49.060;10.616;2023-07-08T09:52:48;97017.81;;;26.16;46.43
57628;BME280;43451;49.060;10.616;2023-07-08T09:55:16;97017.88;;;26.22;46.72
57628;BME280;43451;49.060;10.616;2023-07-08T09:57:43;97012.81;;;26.20;46.86
57628;BME280;43451;49.060;10.616;2023-07-08T10:00:13;97019.88;;;26.42;45.10
57628;BME280;43451;49.060;10.616;2023-07-08T10:02:55;97019.47;;;26.49;46.12
57628;BME280;43451;49.060;10.616;2023-07-08T10:05:37;97001.66;;;26.67;46.18
57628;BME280;43451;49.060;10.616;2023-07-08T10:08:14;96999.50;;;26.82;44.47
57628;BME280;43451;49.060;10.616;2023-07-08T10:10:40;97001.22;;;26.74;43.43
57628;BME280;43451;49.060;10.616;2023-07-08T10:13:23;97007.13;;;26.81;44.26
57628;BME280;43451;49.060;10.616;2023-07-08T10:15:53;96994.25;;;26.90;44.42
57628;BME280;43451;49.060;10.616;2023-07-08T10:18:26;97007.06;;;27.07;46.58
57628;BME280;43451;49.060;10.616;2023-07-08T10:32:33;97018.16;;;27.71;44.00
57628;BME280;43451;49.060;10.616;2023-07-08T10:35:14;97003.31;;;27.96;40.95
57628;BME280;43451;49.060;10.616;2023-07-08T10:37:48;96997.25;;;28.04;39.05
57628;BME280;43451;49.060;10.616;2023-07-08T10:54:27;96998.94;;;28.44;31.77
57628;BME280;43451;49.060;10.616;2023-07-08T10:59:36;96996.69;;;28.65;34.55
57628;BME280;43451;49.060;10.616;2023-07-08T11:05:43;96978.63;;;28.83;34.18
57628;BME280;43451;49.060;10.616;2023-07-08T11:08:30;96986.50;;;28.96;32.46
57628;BME280;43451;49.060;10.616;2023-07-08T11:14:03;96993.41;;;29.11;30.61
57628;BME280;43451;49.060;10.616;2023-07-08T11:16:41;96992.34;;;28.92;32.65
57628;BME280;43451;49.060;10.616;2023-07-08T11:19:31;96991.59;;;28.97;30.56
57628;BME280;43451;49.060;10.616;2023-07-08T11:22:00;96985.75;;;28.95;32.83
57628;BME280;43451;49.060;10.616;2023-07-08T11:24:34;96984.72;;;28.98;31.05
57628;BME280;43451;49.060;10.616;2023-07-08T11:27:15;96989.59;;;29.03;28.95
57628;BME280;43451;49.060;10.616;2023-07-08T11:30:02;96985.78;;;28.89;30.83
57628;BME280;43451;49.060;10.616;2023-07-08T11:32:32;96981.16;;;28.69;32.44
57628;BME280;43451;49.060;10.616;2023-07-08T11:34:59;96983.94;;;28.64;31.49
57628;BME280;43451;49.060;10.616;2023-07-08T11:37:26;96976.34;;;28.59;31.95
57628;BME280;43451;49.060;10.616;2023-07-08T11:39:58;96987.78;;;28.55;34.06
57628;BME280;43451;49.060;10.616;2023-07-08T11:42:40;96976.59;;;28.72;33.66
57628;BME280;43451;49.060;10.616;2023-07-08T11:45:31;96972.28;;;28.65;35.40
57628;BME280;43451;49.060;10.616;2023-07-08T11:48:06;96979.91;;;28.82;34.76
57628;BME280;43451;49.060;10.616;2023-07-08T11:50:41;96972.28;;;28.99;34.50
57628;BME280;43451;49.060;10.616;2023-07-08T11:53:11;96969.22;;;29.20;32.97
57628;BME280;43451;49.060;10.616;2023-07-08T11:55:47;96962.88;;;29.13;33.44
57628;BME280;43451;49.060;10.616;2023-07-08T11:58:21;96967.72;;;28.96;36.05
57628;BME280;43451;49.060;10.616;2023-07-08T12:03:49;96969.22;;;29.25;33.51
57628;BME280;43451;49.060;10.616;2023-07-08T12:08:54;96955.22;;;29.31;32.35
57628;BME280;43451;49.060;10.616;2023-07-08T12:11:26;96963.31;;;29.40;33.85
57628;BME280;43451;49.060;10.616;2023-07-08T12:13:54;96958.53;;;29.24;34.69
57628;BME280;43451;49.060;10.616;2023-07-08T12:16:22;96964.38;;;29.37;33.21
57628;BME280;43451;49.060;10.616;2023-07-08T12:18:48;96969.19;;;29.42;32.50
57628;BME280;43451;49.060;10.616;2023-07-08T12:21:15;96967.94;;;29.32;32.54
57628;BME280;43451;49.060;10.616;2023-07-08T12:23:45;96969.72;;;29.35;34.48
57628;BME280;43451;49.060;10.616;2023-07-08T12:26:12;96964.09;;;29.35;35.02
57628;BME280;43451;49.060;10.616;2023-07-08T12:28:42;96962.06;;;29.47;34.16
57628;BME280;43451;49.060;10.616;2023-07-08T12:31:18;96957.91;;;29.59;33.65
57628;BME280;43451;49.060;10.616;2023-07-08T12:33:45;96959.72;;;29.68;32.63
57628;BME280;43451;49.060;10.616;2023-07-08T12:36:21;96957.72;;;29.63;32.61
57628;BME280;43451;49.060;10.616;2023-07-08T12:38:51;96961.03;;;29.50;33.71
57628;BME280;43451;49.060;10.616;2023-07-08T12:41:20;96962.28;;;29.54;32.02
57628;BME280;43451;49.060;10.616;2023-07-08T12:43:47;96960.25;;;29.60;33.28
57628;BME280;43451;49.060;10.616;2023-07-08T12:46:15;96966.84;;;29.57;33.68
57628;BME280;43451;49.060;10.616;2023-07-08T12:48:40;96955.66;;;29.57;35.08
57628;BME280;43451;49.060;10.616;2023-07-08T12:51:11;96963.31;;;29.63;33.76
57628;BME280;43451;49.060;10.616;2023-07-08T12:53:37;96963.72;;;29.83;34.22
57628;BME280;43451;49.060;10.616;2023-07-08T12:56:04;96966.31;;;29.76;33.55
57628;BME280;43451;49.060;10.616;2023-07-08T12:58:34;96975.75;;;29.67;34.24
57628;BME280;43451;49.060;10.616;2023-07-08T13:01:02;96962.75;;;29.58;34.75
57628;BME280;43451;49.060;10.616;2023-07-08T13:03:31;96959.25;;;29.47;33.57
57628;BME280;43451;49.060;10.616;2023-07-08T13:06:00;96953.88;;;29.60;34.22
57628;BME280;43451;49.060;10.616;2023-07-08T13:08:27;96959.22;;;29.52;34.45
57628;BME280;43451;49.060;10.616;2023-07-08T13:10:59;96964.31;;;29.59;34.13
57628;BME280;43451;49.060;10.616;2023-07-08T13:13:31;96959.72;;;29.68;34.07
57628;BME280;43451;49.060;10.616;2023-07-08T13:15:59;96957.94;;;29.65;34.61
57628;BME280;43451;49.060;10.616;2023-07-08T13:18:32;96963.78;;;29.67;34.51
57628;BME280;43451;49.060;10.616;2023-07-08T13:20:58;96961.19;;;29.80;35.10
57628;BME280;43451;49.060;10.616;2023-07-08T13:23:26;96954.53;;;29.89;33.30
57628;BME280;43451;49.060;10.616;2023-07-08T13:25:54;96960.72;;;29.76;33.08
57628;BME280;43451;49.060;10.616;2023-07-08T13:28:23;96957.94;;;29.65;32.98
57628;BME280;43451;49.060;10.616;2023-07-08T13:31:01;96954.88;;;29.57;32.52
57628;BME280;43451;49.060;10.616;2023-07-08T13:33:34;96952.09;;;29.63;34.92
57628;BME280;43451;49.060;10.616;2023-07-08T13:36:04;96959.44;;;29.71;30.04
57628;BME280;43451;49.060;10.616;2023-07-08T13:38:37;96965.31;;;29.68;30.37
57628;BME280;43451;49.060;10.616;2023-07-08T13:41:05;96957.94;;;29.65;30.14
57628;BME280;43451;49.060;10.616;2023-07-08T13:43:34;96956.16;;;29.61;31.65
57628;BME280;43451;49.060;10.616;2023-07-08T13:46:01;96957.94;;;29.65;32.56
57628;BME280;43451;49.060;10.616;2023-07-08T13:48:30;96958.41;;;29.80;31.08
57628;BME280;43451;49.060;10.616;2023-07-08T13:51:17;96957.09;;;29.87;34.13